sensor_id;sensor_type;location;lat;lon;timestamp;P1;durP1;ratioP1;P2;durP2;ratioP2
32826;SDS011;51059;42.058;27.986;2023-04-04T00:01:18;47.60;;;20.60;;
32826;SDS011;51059;42.058;27.986;2023-04-04T00:03:43;53.70;;;20.20;;
32826;SDS011;51059;42.058;27.986;2023-04-04T00:06:09;51.77;;;21.07;;
32826;SDS011;51059;42.058;27.986;2023-04-04T00:08:34;49.40;;;20.37;;
32826;SDS011;51059;42.058;27.986;2023-04-04T00:11:00;52.30;;;21.53;;
32826;SDS011;51059;42.058;27.986;2023-04-04T00:13:26;55.57;;;22.53;;
32826;SDS011;51059;42.058;27.986;2023-04-04T00:15:52;58.77;;;21.57;;
32826;SDS011;51059;42.058;27.986;2023-04-04T00:18:18;44.27;;;20.83;;
32826;SDS011;51059;42.058;27.986;2023-04-04T00:20:44;50.37;;;20.33;;
32826;SDS011;51059;42.058;27.986;2023-04-04T00:23:09;49.30;;;19.70;;
32826;SDS011;51059;42.058;27.986;2023-04-04T00:25:38;59.83;;;21.20;;
32826;SDS011;51059;42.058;27.986;2023-04-04T00:28:03;47.77;;;19.33;;
32826;SDS011;51059;42.058;27.986;2023-04-04T00:30:29;41.47;;;19.87;;
32826;SDS011;51059;42.058;27.986;2023-04-04T00:32:58;47.43;;;19.13;;
32826;SDS011;51059;42.058;27.986;2023-04-04T00:35:25;53.43;;;19.50;;
32826;SDS011;51059;42.058;27.986;2023-04-04T00:37:51;50.27;;;19.67;;
32826;SDS011;51059;42.058;27.986;2023-04-04T00:40:16;56.83;;;19.33;;
32826;SDS011;51059;42.058;27.986;2023-04-04T00:42:42;44.63;;;18.90;;
32826;SDS011;51059;42.058;27.986;2023-04-04T00:45:08;49.00;;;19.10;;
32826;SDS011;51059;42.058;27.986;2023-04-04T00:47:34;53.57;;;20.10;;
32826;SDS011;51059;42.058;27.986;2023-04-04T00:50:01;43.17;;;17.80;;
32826;SDS011;51059;42.058;27.986;2023-04-04T00:52:26;43.17;;;17.90;;
32826;SDS011;51059;42.058;27.986;2023-04-04T00:54:53;55.70;;;18.70;;
32826;SDS011;51059;42.058;27.986;2023-04-04T00:57:20;40.47;;;18.53;;
32826;SDS011;51059;42.058;27.986;2023-04-04T00:59:46;49.03;;;18.83;;
32826;SDS011;51059;42.058;27.986;2023-04-04T01:02:12;44.57;;;19.77;;
32826;SDS011;51059;42.058;27.986;2023-04-04T01:04:37;49.37;;;19.47;;
32826;SDS011;51059;42.058;27.986;2023-04-04T01:07:03;40.77;;;19.03;;
32826;SDS011;51059;42.058;27.986;2023-04-04T01:09:29;42.53;;;18.60;;
32826;SDS011;51059;42.058;27.986;2023-04-04T01:11:54;45.97;;;18.70;;
32826;SDS011;51059;42.058;27.986;2023-04-04T01:14:21;51.53;;;18.63;;
32826;SDS011;51059;42.058;27.986;2023-04-04T01:16:49;53.73;;;19.20;;
32826;SDS011;51059;42.058;27.986;2023-04-04T01:19:32;52.40;;;19.00;;
32826;SDS011;51059;42.058;27.986;2023-04-04T01:21:59;58.60;;;20.20;;
32826;SDS011;51059;42.058;27.986;2023-04-04T01:24:27;48.30;;;18.40;;
32826;SDS011;51059;42.058;27.986;2023-04-04T01:26:56;42.00;;;18.73;;
32826;SDS011;51059;42.058;27.986;2023-04-04T01:29:22;51.67;;;19.87;;
32826;SDS011;51059;42.058;27.986;2023-04-04T01:31:54;49.00;;;18.87;;
32826;SDS011;51059;42.058;27.986;2023-04-04T01:37:49;44.73;;;18.13;;
32826;SDS011;51059;42.058;27.986;2023-04-04T01:40:19;43.70;;;18.13;;
32826;SDS011;51059;42.058;27.986;2023-04-04T01:42:46;43.63;;;19.47;;
32826;SDS011;51059;42.058;27.986;2023-04-04T01:45:12;43.20;;;18.40;;
32826;SDS011;51059;42.058;27.986;2023-04-04T01:47:41;46.83;;;18.97;;
32826;SDS011;51059;42.058;27.986;2023-04-04T01:50:07;45.87;;;19.23;;
32826;SDS011;51059;42.058;27.986;2023-04-04T01:52:34;51.33;;;21.50;;
32826;SDS011;51059;42.058;27.986;2023-04-04T01:55:00;48.93;;;18.37;;
32826;SDS011;51059;42.058;27.986;2023-04-04T01:57:26;58.07;;;19.17;;
32826;SDS011;51059;42.058;27.986;2023-04-04T01:59:52;45.47;;;18.60;;
32826;SDS011;51059;42.058;27.986;2023-04-04T02:02:18;48.67;;;19.60;;
32826;SDS011;51059;42.058;27.986;2023-04-04T02:04:43;46.83;;;18.07;;
32826;SDS011;51059;42.058;27.986;2023-04-04T02:07:09;44.47;;;17.57;;
32826;SDS011;51059;42.058;27.986;2023-04-04T02:09:34;50.07;;;18.23;;
32826;SDS011;51059;42.058;27.986;2023-04-04T02:12:00;37.13;;;17.97;;
32826;SDS011;51059;42.058;27.986;2023-04-04T02:14:26;44.27;;;17.53;;
32826;SDS011;51059;42.058;27.986;2023-04-04T02:16:51;45.97;;;17.97;;
32826;SDS011;51059;42.058;27.986;2023-04-04T02:19:17;44.83;;;18.33;;
32826;SDS011;51059;42.058;27.986;2023-04-04T02:21:42;40.50;;;17.10;;
32826;SDS011;51059;42.058;27.986;2023-04-04T02:24:08;37.77;;;17.97;;
32826;SDS011;51059;42.058;27.986;2023-04-04T02:26:34;46.30;;;18.00;;
32826;SDS011;51059;42.058;27.986;2023-04-04T02:29:00;42.87;;;18.87;;
32826;SDS011;51059;42.058;27.986;2023-04-04T02:31:26;47.00;;;17.40;;
32826;SDS011;51059;42.058;27.986;2023-04-04T02:33:52;45.67;;;17.20;;
32826;SDS011;51059;42.058;27.986;2023-04-04T02:36:18;43.43;;;17.73;;
32826;SDS011;51059;42.058;27.986;2023-04-04T02:38:43;52.87;;;17.33;;
32826;SDS011;51059;42.058;27.986;2023-04-04T02:41:09;38.47;;;17.53;;
32826;SDS011;51059;42.058;27.986;2023-04-04T02:43:34;38.87;;;16.53;;
32826;SDS011;51059;42.058;27.986;2023-04-04T02:46:00;40.33;;;16.90;;
32826;SDS011;51059;42.058;27.986;2023-04-04T02:48:26;44.60;;;17.00;;
32826;SDS011;51059;42.058;27.986;2023-04-04T02:50:51;51.07;;;16.83;;
32826;SDS011;51059;42.058;27.986;2023-04-04T02:53:17;52.63;;;16.97;;
32826;SDS011;51059;42.058;27.986;2023-04-04T02:55:42;41.80;;;17.53;;
32826;SDS011;51059;42.058;27.986;2023-04-04T02:58:08;43.00;;;16.80;;
32826;SDS011;51059;42.058;27.986;2023-04-04T03:00:34;49.13;;;18.47;;
32826;SDS011;51059;42.058;27.986;2023-04-04T03:02:59;41.07;;;16.90;;
32826;SDS011;51059;42.058;27.986;2023-04-04T03:05:25;51.50;;;18.07;;
32826;SDS011;51059;42.058;27.986;2023-04-04T03:07:55;44.07;;;17.37;;
32826;SDS011;51059;42.058;27.986;2023-04-04T03:10:21;39.23;;;17.17;;
32826;SDS011;51059;42.058;27.986;2023-04-04T03:12:47;44.77;;;18.20;;
32826;SDS011;51059;42.058;27.986;2023-04-04T03:15:13;42.00;;;19.37;;
32826;SDS011;51059;42.058;27.986;2023-04-04T03:17:39;54.27;;;19.13;;
32826;SDS011;51059;42.058;27.986;2023-04-04T03:20:05;42.87;;;17.13;;
32826;SDS011;51059;42.058;27.986;2023-04-04T03:22:31;46.73;;;18.73;;
32826;SDS011;51059;42.058;27.986;2023-04-04T03:24:56;51.97;;;18.93;;
32826;SDS011;51059;42.058;27.986;2023-04-04T03:27:22;49.83;;;19.47;;
32826;SDS011;51059;42.058;27.986;2023-04-04T03:29:47;46.50;;;19.10;;
32826;SDS011;51059;42.058;27.986;2023-04-04T03:32:13;44.43;;;17.10;;
32826;SDS011;51059;42.058;27.986;2023-04-04T03:34:39;52.07;;;17.33;;
32826;SDS011;51059;42.058;27.986;2023-04-04T03:37:04;43.67;;;16.80;;
32826;SDS011;51059;42.058;27.986;2023-04-04T03:39:30;46.83;;;17.77;;
32826;SDS011;51059;42.058;27.986;2023-04-04T03:41:56;53.27;;;17.53;;
32826;SDS011;51059;42.058;27.986;2023-04-04T03:44:22;52.70;;;17.90;;
32826;SDS011;51059;42.058;27.986;2023-04-04T03:46:48;50.83;;;17.23;;
32826;SDS011;51059;42.058;27.986;2023-04-04T03:49:13;44.07;;;16.47;;
32826;SDS011;51059;42.058;27.986;2023-04-04T03:51:39;48.63;;;17.07;;
32826;SDS011;51059;42.058;27.986;2023-04-04T03:54:05;47.83;;;16.53;;
32826;SDS011;51059;42.058;27.986;2023-04-04T03:56:31;41.70;;;14.47;;
32826;SDS011;51059;42.058;27.986;2023-04-04T03:58:57;41.60;;;13.70;;
32826;SDS011;51059;42.058;27.986;2023-04-04T04:01:23;40.30;;;13.40;;
32826;SDS011;51059;42.058;27.986;2023-04-04T04:03:48;37.27;;;13.67;;
32826;SDS011;51059;42.058;27.986;2023-04-04T04:06:14;45.00;;;14.50;;
32826;SDS011;51059;42.058;27.986;2023-04-04T04:08:40;42.17;;;14.07;;
32826;SDS011;51059;42.058;27.986;2023-04-04T04:11:05;46.97;;;13.70;;
32826;SDS011;51059;42.058;27.986;2023-04-04T04:13:32;41.00;;;13.37;;
32826;SDS011;51059;42.058;27.986;2023-04-04T04:15:58;45.67;;;12.47;;
32826;SDS011;51059;42.058;27.986;2023-04-04T04:18:23;39.57;;;12.10;;
32826;SDS011;51059;42.058;27.986;2023-04-04T04:20:49;39.77;;;12.27;;
32826;SDS011;51059;42.058;27.986;2023-04-04T04:23:15;36.40;;;11.73;;
32826;SDS011;51059;42.058;27.986;2023-04-04T04:25:40;44.50;;;11.70;;
32826;SDS011;51059;42.058;27.986;2023-04-04T04:28:06;31.53;;;10.43;;
32826;SDS011;51059;42.058;27.986;2023-04-04T04:30:31;33.13;;;11.70;;
32826;SDS011;51059;42.058;27.986;2023-04-04T04:32:57;36.37;;;11.50;;
32826;SDS011;51059;42.058;27.986;2023-04-04T04:35:22;39.67;;;12.47;;
32826;SDS011;51059;42.058;27.986;2023-04-04T04:37:48;37.53;;;13.07;;
32826;SDS011;51059;42.058;27.986;2023-04-04T04:40:14;35.40;;;11.97;;
32826;SDS011;51059;42.058;27.986;2023-04-04T04:42:46;37.50;;;13.63;;
32826;SDS011;51059;42.058;27.986;2023-04-04T04:45:11;39.27;;;14.20;;
32826;SDS011;51059;42.058;27.986;2023-04-04T04:47:37;44.53;;;14.90;;
32826;SDS011;51059;42.058;27.986;2023-04-04T04:50:03;47.37;;;14.70;;
32826;SDS011;51059;42.058;27.986;2023-04-04T04:52:28;36.37;;;14.07;;
32826;SDS011;51059;42.058;27.986;2023-04-04T04:54:56;33.57;;;13.90;;
32826;SDS011;51059;42.058;27.986;2023-04-04T04:57:22;40.80;;;13.47;;
32826;SDS011;51059;42.058;27.986;2023-04-04T04:59:47;35.63;;;13.83;;
32826;SDS011;51059;42.058;27.986;2023-04-04T05:02:14;40.77;;;13.30;;
32826;SDS011;51059;42.058;27.986;2023-04-04T05:04:40;47.03;;;13.80;;
32826;SDS011;51059;42.058;27.986;2023-04-04T05:07:08;34.60;;;12.27;;
32826;SDS011;51059;42.058;27.986;2023-04-04T05:09:36;43.60;;;13.60;;
32826;SDS011;51059;42.058;27.986;2023-04-04T05:12:02;32.37;;;12.40;;
32826;SDS011;51059;42.058;27.986;2023-04-04T05:14:27;39.43;;;11.83;;
32826;SDS011;51059;42.058;27.986;2023-04-04T05:16:53;37.60;;;12.67;;
32826;SDS011;51059;42.058;27.986;2023-04-04T05:19:19;36.77;;;12.47;;
32826;SDS011;51059;42.058;27.986;2023-04-04T05:21:44;31.97;;;11.77;;
32826;SDS011;51059;42.058;27.986;2023-04-04T05:24:10;37.23;;;11.63;;
32826;SDS011;51059;42.058;27.986;2023-04-04T05:26:36;35.57;;;11.33;;
32826;SDS011;51059;42.058;27.986;2023-04-04T05:29:02;43.13;;;10.93;;
32826;SDS011;51059;42.058;27.986;2023-04-04T05:31:28;40.47;;;11.20;;
32826;SDS011;51059;42.058;27.986;2023-04-04T05:33:53;34.63;;;11.63;;
32826;SDS011;51059;42.058;27.986;2023-04-04T05:36:20;30.57;;;11.47;;
32826;SDS011;51059;42.058;27.986;2023-04-04T05:38:46;29.63;;;10.37;;
32826;SDS011;51059;42.058;27.986;2023-04-04T05:41:11;39.80;;;10.90;;
32826;SDS011;51059;42.058;27.986;2023-04-04T05:43:37;30.07;;;11.23;;
32826;SDS011;51059;42.058;27.986;2023-04-04T05:46:03;44.07;;;12.30;;
32826;SDS011;51059;42.058;27.986;2023-04-04T05:48:28;36.50;;;11.37;;
32826;SDS011;51059;42.058;27.986;2023-04-04T05:50:54;32.37;;;11.10;;
32826;SDS011;51059;42.058;27.986;2023-04-04T05:53:19;36.67;;;11.27;;
32826;SDS011;51059;42.058;27.986;2023-04-04T05:55:45;43.80;;;11.57;;
32826;SDS011;51059;42.058;27.986;2023-04-04T05:58:10;40.17;;;11.57;;
32826;SDS011;51059;42.058;27.986;2023-04-04T06:00:36;37.00;;;11.63;;
32826;SDS011;51059;42.058;27.986;2023-04-04T06:03:03;40.13;;;12.73;;
32826;SDS011;51059;42.058;27.986;2023-04-04T06:05:28;28.17;;;11.30;;
32826;SDS011;51059;42.058;27.986;2023-04-04T06:07:54;38.30;;;12.03;;
32826;SDS011;51059;42.058;27.986;2023-04-04T06:10:20;41.93;;;11.20;;
32826;SDS011;51059;42.058;27.986;2023-04-04T06:12:45;36.80;;;11.10;;
32826;SDS011;51059;42.058;27.986;2023-04-04T06:15:11;39.33;;;12.00;;
32826;SDS011;51059;42.058;27.986;2023-04-04T06:17:36;39.17;;;11.37;;
32826;SDS011;51059;42.058;27.986;2023-04-04T06:20:02;42.23;;;11.77;;
32826;SDS011;51059;42.058;27.986;2023-04-04T06:22:29;38.57;;;12.87;;
32826;SDS011;51059;42.058;27.986;2023-04-04T06:24:54;44.57;;;12.63;;
32826;SDS011;51059;42.058;27.986;2023-04-04T06:27:20;37.40;;;11.73;;
32826;SDS011;51059;42.058;27.986;2023-04-04T06:29:46;41.63;;;11.07;;
32826;SDS011;51059;42.058;27.986;2023-04-04T06:32:13;29.63;;;10.20;;
32826;SDS011;51059;42.058;27.986;2023-04-04T06:34:39;35.03;;;11.13;;
32826;SDS011;51059;42.058;27.986;2023-04-04T06:37:05;30.30;;;11.60;;
32826;SDS011;51059;42.058;27.986;2023-04-04T06:39:30;38.50;;;10.13;;
32826;SDS011;51059;42.058;27.986;2023-04-04T06:41:58;38.87;;;10.60;;
32826;SDS011;51059;42.058;27.986;2023-04-04T06:44:24;37.13;;;9.37;;
32826;SDS011;51059;42.058;27.986;2023-04-04T06:46:50;32.40;;;9.77;;
32826;SDS011;51059;42.058;27.986;2023-04-04T06:49:15;42.13;;;9.50;;
32826;SDS011;51059;42.058;27.986;2023-04-04T06:51:41;38.47;;;9.67;;
32826;SDS011;51059;42.058;27.986;2023-04-04T06:54:06;28.77;;;8.30;;
32826;SDS011;51059;42.058;27.986;2023-04-04T06:56:32;32.80;;;8.53;;
32826;SDS011;51059;42.058;27.986;2023-04-04T06:58:58;32.90;;;8.53;;
32826;SDS011;51059;42.058;27.986;2023-04-04T07:01:23;34.40;;;9.47;;
32826;SDS011;51059;42.058;27.986;2023-04-04T07:03:51;31.17;;;8.87;;
32826;SDS011;51059;42.058;27.986;2023-04-04T07:06:18;29.23;;;8.60;;
32826;SDS011;51059;42.058;27.986;2023-04-04T07:08:46;30.67;;;8.60;;
32826;SDS011;51059;42.058;27.986;2023-04-04T07:11:11;31.80;;;9.60;;
32826;SDS011;51059;42.058;27.986;2023-04-04T07:13:37;29.07;;;8.10;;
32826;SDS011;51059;42.058;27.986;2023-04-04T07:16:03;29.20;;;8.80;;
32826;SDS011;51059;42.058;27.986;2023-04-04T07:18:29;34.07;;;8.37;;
32826;SDS011;51059;42.058;27.986;2023-04-04T07:20:55;30.00;;;8.03;;
32826;SDS011;51059;42.058;27.986;2023-04-04T07:23:21;33.20;;;7.70;;
32826;SDS011;51059;42.058;27.986;2023-04-04T07:25:47;28.10;;;7.30;;
32826;SDS011;51059;42.058;27.986;2023-04-04T07:28:12;20.10;;;7.33;;
32826;SDS011;51059;42.058;27.986;2023-04-04T07:30:38;35.40;;;7.53;;
32826;SDS011;51059;42.058;27.986;2023-04-04T07:33:03;25.93;;;7.07;;
32826;SDS011;51059;42.058;27.986;2023-04-04T07:35:29;26.67;;;7.53;;
32826;SDS011;51059;42.058;27.986;2023-04-04T07:37:54;30.47;;;7.60;;
32826;SDS011;51059;42.058;27.986;2023-04-04T07:40:20;26.83;;;7.60;;
32826;SDS011;51059;42.058;27.986;2023-04-04T07:42:46;26.37;;;7.17;;
32826;SDS011;51059;42.058;27.986;2023-04-04T07:45:18;21.43;;;6.97;;
32826;SDS011;51059;42.058;27.986;2023-04-04T07:47:44;26.67;;;8.10;;
32826;SDS011;51059;42.058;27.986;2023-04-04T07:50:10;26.63;;;7.90;;
32826;SDS011;51059;42.058;27.986;2023-04-04T07:52:36;26.67;;;7.97;;
32826;SDS011;51059;42.058;27.986;2023-04-04T07:55:02;27.10;;;8.20;;
32826;SDS011;51059;42.058;27.986;2023-04-04T07:57:28;25.37;;;7.63;;
32826;SDS011;51059;42.058;27.986;2023-04-04T07:59:54;34.50;;;8.23;;
32826;SDS011;51059;42.058;27.986;2023-04-04T08:02:19;27.27;;;7.70;;
32826;SDS011;51059;42.058;27.986;2023-04-04T08:04:45;26.67;;;7.27;;
32826;SDS011;51059;42.058;27.986;2023-04-04T08:07:10;26.40;;;7.80;;
32826;SDS011;51059;42.058;27.986;2023-04-04T08:09:36;28.47;;;7.60;;
32826;SDS011;51059;42.058;27.986;2023-04-04T08:12:02;33.83;;;7.40;;
32826;SDS011;51059;42.058;27.986;2023-04-04T08:14:29;28.33;;;7.63;;
32826;SDS011;51059;42.058;27.986;2023-04-04T08:16:55;26.13;;;7.50;;
32826;SDS011;51059;42.058;27.986;2023-04-04T08:19:21;21.47;;;7.10;;
32826;SDS011;51059;42.058;27.986;2023-04-04T08:21:46;27.37;;;7.60;;
32826;SDS011;51059;42.058;27.986;2023-04-04T08:24:12;27.37;;;6.90;;
32826;SDS011;51059;42.058;27.986;2023-04-04T08:26:38;29.17;;;7.33;;
32826;SDS011;51059;42.058;27.986;2023-04-04T08:29:04;31.63;;;8.13;;
32826;SDS011;51059;42.058;27.986;2023-04-04T08:31:29;30.43;;;7.13;;
32826;SDS011;51059;42.058;27.986;2023-04-04T08:33:55;34.43;;;7.33;;
32826;SDS011;51059;42.058;27.986;2023-04-04T08:36:21;26.97;;;6.57;;
32826;SDS011;51059;42.058;27.986;2023-04-04T08:38:47;26.67;;;7.40;;
32826;SDS011;51059;42.058;27.986;2023-04-04T08:41:13;25.57;;;6.80;;
32826;SDS011;51059;42.058;27.986;2023-04-04T08:43:40;27.67;;;7.67;;
32826;SDS011;51059;42.058;27.986;2023-04-04T08:46:10;24.47;;;7.10;;
32826;SDS011;51059;42.058;27.986;2023-04-04T08:48:36;24.67;;;6.30;;
32826;SDS011;51059;42.058;27.986;2023-04-04T08:51:03;22.23;;;6.47;;
32826;SDS011;51059;42.058;27.986;2023-04-04T08:53:29;28.40;;;7.97;;
32826;SDS011;51059;42.058;27.986;2023-04-04T08:55:57;23.37;;;6.73;;
32826;SDS011;51059;42.058;27.986;2023-04-04T08:58:24;38.70;;;8.87;;
32826;SDS011;51059;42.058;27.986;2023-04-04T09:00:52;30.17;;;7.73;;
32826;SDS011;51059;42.058;27.986;2023-04-04T09:03:28;26.67;;;7.70;;
32826;SDS011;51059;42.058;27.986;2023-04-04T09:05:56;25.80;;;7.20;;
32826;SDS011;51059;42.058;27.986;2023-04-04T09:08:22;24.77;;;6.80;;
32826;SDS011;51059;42.058;27.986;2023-04-04T09:10:50;25.10;;;7.17;;
32826;SDS011;51059;42.058;27.986;2023-04-04T09:13:16;24.07;;;6.93;;
32826;SDS011;51059;42.058;27.986;2023-04-04T09:15:46;31.20;;;7.27;;
32826;SDS011;51059;42.058;27.986;2023-04-04T09:18:13;30.53;;;7.47;;
32826;SDS011;51059;42.058;27.986;2023-04-04T09:20:41;26.40;;;7.60;;
32826;SDS011;51059;42.058;27.986;2023-04-04T09:23:09;20.27;;;6.60;;
32826;SDS011;51059;42.058;27.986;2023-04-04T09:25:36;20.97;;;6.80;;
32826;SDS011;51059;42.058;27.986;2023-04-04T09:28:03;24.50;;;7.33;;
32826;SDS011;51059;42.058;27.986;2023-04-04T09:30:32;26.27;;;6.90;;
32826;SDS011;51059;42.058;27.986;2023-04-04T09:33:00;25.77;;;6.93;;
32826;SDS011;51059;42.058;27.986;2023-04-04T09:35:33;29.30;;;7.90;;
32826;SDS011;51059;42.058;27.986;2023-04-04T09:38:02;22.23;;;6.33;;
32826;SDS011;51059;42.058;27.986;2023-04-04T09:40:28;29.60;;;7.97;;
32826;SDS011;51059;42.058;27.986;2023-04-04T09:42:54;23.03;;;7.03;;
32826;SDS011;51059;42.058;27.986;2023-04-04T09:45:24;24.67;;;6.70;;
32826;SDS011;51059;42.058;27.986;2023-04-04T09:47:53;26.27;;;7.50;;
32826;SDS011;51059;42.058;27.986;2023-04-04T09:50:21;25.47;;;6.97;;
32826;SDS011;51059;42.058;27.986;2023-04-04T09:52:48;29.40;;;6.60;;
32826;SDS011;51059;42.058;27.986;2023-04-04T09:55:18;28.93;;;6.30;;
32826;SDS011;51059;42.058;27.986;2023-04-04T09:57:45;23.23;;;6.33;;
32826;SDS011;51059;42.058;27.986;2023-04-04T10:00:11;22.70;;;6.43;;
32826;SDS011;51059;42.058;27.986;2023-04-04T10:02:38;25.23;;;7.30;;
32826;SDS011;51059;42.058;27.986;2023-04-04T10:05:08;24.23;;;6.77;;
32826;SDS011;51059;42.058;27.986;2023-04-04T10:07:37;20.97;;;6.83;;
32826;SDS011;51059;42.058;27.986;2023-04-04T10:10:04;25.37;;;6.67;;
32826;SDS011;51059;42.058;27.986;2023-04-04T10:12:30;23.00;;;6.63;;
32826;SDS011;51059;42.058;27.986;2023-04-04T10:15:00;22.10;;;6.13;;
32826;SDS011;51059;42.058;27.986;2023-04-04T10:17:38;29.57;;;6.47;;
32826;SDS011;51059;42.058;27.986;2023-04-04T10:20:05;21.60;;;6.33;;
32826;SDS011;51059;42.058;27.986;2023-04-04T10:22:33;21.27;;;6.63;;
32826;SDS011;51059;42.058;27.986;2023-04-04T10:25:00;25.17;;;6.33;;
32826;SDS011;51059;42.058;27.986;2023-04-04T10:27:27;21.17;;;6.27;;
32826;SDS011;51059;42.058;27.986;2023-04-04T10:29:53;23.07;;;5.90;;
32826;SDS011;51059;42.058;27.986;2023-04-04T10:32:23;22.27;;;6.93;;
32826;SDS011;51059;42.058;27.986;2023-04-04T10:35:02;22.03;;;6.57;;
32826;SDS011;51059;42.058;27.986;2023-04-04T10:37:31;22.00;;;6.70;;
32826;SDS011;51059;42.058;27.986;2023-04-04T10:40:09;22.60;;;7.10;;
32826;SDS011;51059;42.058;27.986;2023-04-04T10:42:46;23.40;;;5.87;;
32826;SDS011;51059;42.058;27.986;2023-04-04T10:45:15;18.47;;;6.17;;
32826;SDS011;51059;42.058;27.986;2023-04-04T10:47:42;19.70;;;5.90;;
32826;SDS011;51059;42.058;27.986;2023-04-04T10:50:09;22.00;;;6.20;;
32826;SDS011;51059;42.058;27.986;2023-04-04T10:52:39;18.27;;;5.33;;
32826;SDS011;51059;42.058;27.986;2023-04-04T10:55:07;25.63;;;6.67;;
32826;SDS011;51059;42.058;27.986;2023-04-04T10:57:35;27.67;;;6.77;;
32826;SDS011;51059;42.058;27.986;2023-04-04T11:00:06;20.63;;;6.00;;
32826;SDS011;51059;42.058;27.986;2023-04-04T11:07:55;25.70;;;5.93;;
32826;SDS011;51059;42.058;27.986;2023-04-04T11:10:22;25.93;;;6.00;;
32826;SDS011;51059;42.058;27.986;2023-04-04T11:12:53;24.27;;;7.13;;
32826;SDS011;51059;42.058;27.986;2023-04-04T11:15:20;22.80;;;6.63;;
32826;SDS011;51059;42.058;27.986;2023-04-04T11:20:16;17.93;;;5.80;;
32826;SDS011;51059;42.058;27.986;2023-04-04T11:23:00;24.63;;;6.63;;
32826;SDS011;51059;42.058;27.986;2023-04-04T11:27:55;24.40;;;6.40;;
32826;SDS011;51059;42.058;27.986;2023-04-04T11:30:22;22.73;;;6.00;;
32826;SDS011;51059;42.058;27.986;2023-04-04T11:32:55;22.63;;;6.83;;
32826;SDS011;51059;42.058;27.986;2023-04-04T11:35:21;17.47;;;5.73;;
32826;SDS011;51059;42.058;27.986;2023-04-04T11:40:16;25.33;;;6.73;;
32826;SDS011;51059;42.058;27.986;2023-04-04T11:42:42;21.27;;;6.43;;
32826;SDS011;51059;42.058;27.986;2023-04-04T11:45:08;25.03;;;6.60;;
32826;SDS011;51059;42.058;27.986;2023-04-04T11:47:36;25.93;;;7.60;;
32826;SDS011;51059;42.058;27.986;2023-04-04T11:50:06;22.93;;;6.73;;
32826;SDS011;51059;42.058;27.986;2023-04-04T11:52:34;23.33;;;6.97;;
32826;SDS011;51059;42.058;27.986;2023-04-04T11:54:59;24.67;;;7.30;;
32826;SDS011;51059;42.058;27.986;2023-04-04T11:57:25;25.83;;;7.37;;
32826;SDS011;51059;42.058;27.986;2023-04-04T11:59:51;20.70;;;7.03;;
32826;SDS011;51059;42.058;27.986;2023-04-04T12:02:22;28.83;;;7.70;;
32826;SDS011;51059;42.058;27.986;2023-04-04T12:04:59;22.90;;;7.70;;
32826;SDS011;51059;42.058;27.986;2023-04-04T12:07:26;23.40;;;7.00;;
32826;SDS011;51059;42.058;27.986;2023-04-04T12:09:52;24.47;;;7.70;;
32826;SDS011;51059;42.058;27.986;2023-04-04T12:12:20;28.70;;;7.73;;
32826;SDS011;51059;42.058;27.986;2023-04-04T12:14:46;25.17;;;7.67;;
32826;SDS011;51059;42.058;27.986;2023-04-04T12:17:14;23.93;;;7.33;;
32826;SDS011;51059;42.058;27.986;2023-04-04T12:19:40;29.57;;;8.37;;
32826;SDS011;51059;42.058;27.986;2023-04-04T12:22:07;30.93;;;8.10;;
32826;SDS011;51059;42.058;27.986;2023-04-04T12:24:33;25.27;;;7.97;;
32826;SDS011;51059;42.058;27.986;2023-04-04T12:26:59;30.57;;;7.97;;
32826;SDS011;51059;42.058;27.986;2023-04-04T12:29:27;32.07;;;8.67;;
32826;SDS011;51059;42.058;27.986;2023-04-04T12:31:53;28.43;;;8.30;;
32826;SDS011;51059;42.058;27.986;2023-04-04T12:34:23;26.93;;;8.20;;
32826;SDS011;51059;42.058;27.986;2023-04-04T12:36:56;30.40;;;8.60;;
32826;SDS011;51059;42.058;27.986;2023-04-04T12:39:25;26.00;;;8.00;;
32826;SDS011;51059;42.058;27.986;2023-04-04T12:41:53;34.73;;;9.10;;
32826;SDS011;51059;42.058;27.986;2023-04-04T12:44:28;25.67;;;7.33;;
32826;SDS011;51059;42.058;27.986;2023-04-04T12:46:58;30.03;;;8.47;;
32826;SDS011;51059;42.058;27.986;2023-04-04T12:49:31;21.83;;;8.00;;
32826;SDS011;51059;42.058;27.986;2023-04-04T12:52:03;26.73;;;7.50;;
32826;SDS011;51059;42.058;27.986;2023-04-04T12:54:31;23.60;;;7.33;;
32826;SDS011;51059;42.058;27.986;2023-04-04T12:57:00;24.83;;;7.23;;
32826;SDS011;51059;42.058;27.986;2023-04-04T12:59:28;30.07;;;8.37;;
32826;SDS011;51059;42.058;27.986;2023-04-04T13:01:54;27.23;;;8.33;;
32826;SDS011;51059;42.058;27.986;2023-04-04T13:04:21;28.97;;;8.17;;
32826;SDS011;51059;42.058;27.986;2023-04-04T13:06:47;27.67;;;7.53;;
32826;SDS011;51059;42.058;27.986;2023-04-04T13:09:16;24.30;;;7.20;;
32826;SDS011;51059;42.058;27.986;2023-04-04T13:11:59;27.53;;;7.20;;
32826;SDS011;51059;42.058;27.986;2023-04-04T13:14:54;25.87;;;7.70;;
32826;SDS011;51059;42.058;27.986;2023-04-04T13:17:20;30.00;;;7.77;;
32826;SDS011;51059;42.058;27.986;2023-04-04T13:19:46;31.00;;;8.37;;
32826;SDS011;51059;42.058;27.986;2023-04-04T13:22:11;31.20;;;8.30;;
32826;SDS011;51059;42.058;27.986;2023-04-04T13:24:37;27.47;;;8.23;;
32826;SDS011;51059;42.058;27.986;2023-04-04T13:27:03;27.80;;;7.80;;
32826;SDS011;51059;42.058;27.986;2023-04-04T13:29:28;27.47;;;8.17;;
32826;SDS011;51059;42.058;27.986;2023-04-04T13:31:54;25.40;;;7.97;;
32826;SDS011;51059;42.058;27.986;2023-04-04T13:34:20;25.23;;;7.60;;
32826;SDS011;51059;42.058;27.986;2023-04-04T13:36:47;30.87;;;8.07;;
32826;SDS011;51059;42.058;27.986;2023-04-04T13:39:12;26.03;;;7.67;;
32826;SDS011;51059;42.058;27.986;2023-04-04T13:41:38;21.47;;;7.93;;
32826;SDS011;51059;42.058;27.986;2023-04-04T13:44:03;28.23;;;7.87;;
32826;SDS011;51059;42.058;27.986;2023-04-04T13:46:29;26.90;;;7.80;;
32826;SDS011;51059;42.058;27.986;2023-04-04T13:48:54;30.87;;;8.30;;
32826;SDS011;51059;42.058;27.986;2023-04-04T13:51:20;28.90;;;8.33;;
32826;SDS011;51059;42.058;27.986;2023-04-04T13:53:46;23.57;;;8.20;;
32826;SDS011;51059;42.058;27.986;2023-04-04T13:56:12;22.83;;;7.63;;
32826;SDS011;51059;42.058;27.986;2023-04-04T13:58:38;22.67;;;7.70;;
32826;SDS011;51059;42.058;27.986;2023-04-04T14:01:04;21.73;;;8.03;;
32826;SDS011;51059;42.058;27.986;2023-04-04T14:03:30;25.03;;;7.17;;
32826;SDS011;51059;42.058;27.986;2023-04-04T14:05:56;30.27;;;8.10;;
32826;SDS011;51059;42.058;27.986;2023-04-04T14:08:21;22.40;;;7.10;;
32826;SDS011;51059;42.058;27.986;2023-04-04T14:10:47;22.83;;;7.40;;
32826;SDS011;51059;42.058;27.986;2023-04-04T14:13:12;21.97;;;6.97;;
32826;SDS011;51059;42.058;27.986;2023-04-04T14:15:38;23.93;;;6.73;;
32826;SDS011;51059;42.058;27.986;2023-04-04T14:18:04;23.90;;;6.97;;
32826;SDS011;51059;42.058;27.986;2023-04-04T14:20:30;22.57;;;7.57;;
32826;SDS011;51059;42.058;27.986;2023-04-04T14:22:55;23.30;;;7.00;;
32826;SDS011;51059;42.058;27.986;2023-04-04T14:25:21;20.20;;;6.50;;
32826;SDS011;51059;42.058;27.986;2023-04-04T14:27:46;26.30;;;7.53;;
32826;SDS011;51059;42.058;27.986;2023-04-04T14:30:12;22.63;;;7.33;;